sensor_id;sensor_type;location;lat;lon;timestamp;P1;durP1;ratioP1;P2;durP2;ratioP2
73512;SDS011;61754;55.008;73.348;2022-07-10T00:01:56;7.40;;;4.30;;
73512;SDS011;61754;55.008;73.348;2022-07-10T00:04:22;5.05;;;3.90;;
73512;SDS011;61754;55.008;73.348;2022-07-10T00:06:48;5.85;;;4.40;;
73512;SDS011;61754;55.008;73.348;2022-07-10T00:09:14;4.43;;;4.00;;
73512;SDS011;61754;55.008;73.348;2022-07-10T00:11:41;5.22;;;3.75;;
73512;SDS011;61754;55.008;73.348;2022-07-10T00:14:07;4.70;;;3.83;;
73512;SDS011;61754;55.008;73.348;2022-07-10T00:16:33;5.00;;;3.65;;
73512;SDS011;61754;55.008;73.348;2022-07-10T00:19:00;3.95;;;3.55;;
73512;SDS011;61754;55.008;73.348;2022-07-10T00:21:30;4.32;;;3.95;;
73512;SDS011;61754;55.008;73.348;2022-07-10T00:23:56;5.78;;;4.15;;
73512;SDS011;61754;55.008;73.348;2022-07-10T00:26:22;4.65;;;4.25;;
73512;SDS011;61754;55.008;73.348;2022-07-10T00:28:48;5.38;;;4.10;;
73512;SDS011;61754;55.008;73.348;2022-07-10T00:31:14;6.05;;;3.85;;
73512;SDS011;61754;55.008;73.348;2022-07-10T00:33:45;7.07;;;3.80;;
73512;SDS011;61754;55.008;73.348;2022-07-10T00:36:16;6.57;;;3.85;;
73512;SDS011;61754;55.008;73.348;2022-07-10T00:38:52;10.35;;;4.53;;
73512;SDS011;61754;55.008;73.348;2022-07-10T00:41:18;4.95;;;3.65;;
73512;SDS011;61754;55.008;73.348;2022-07-10T00:44:17;5.68;;;3.80;;
73512;SDS011;61754;55.008;73.348;2022-07-10T00:46:37;9.10;;;4.75;;
73512;SDS011;61754;55.008;73.348;2022-07-10T00:49:03;4.68;;;4.00;;
73512;SDS011;61754;55.008;73.348;2022-07-10T00:51:32;4.95;;;4.32;;
73512;SDS011;61754;55.008;73.348;2022-07-10T00:54:09;4.07;;;3.78;;
73512;SDS011;61754;55.008;73.348;2022-07-10T00:56:35;5.95;;;3.97;;
73512;SDS011;61754;55.008;73.348;2022-07-10T00:59:02;7.88;;;4.75;;
73512;SDS011;61754;55.008;73.348;2022-07-10T01:01:28;4.75;;;4.35;;
73512;SDS011;61754;55.008;73.348;2022-07-10T01:03:54;4.32;;;4.03;;
73512;SDS011;61754;55.008;73.348;2022-07-10T01:06:20;6.10;;;4.22;;
73512;SDS011;61754;55.008;73.348;2022-07-10T01:08:48;4.07;;;3.72;;
73512;SDS011;61754;55.008;73.348;2022-07-10T01:11:14;5.65;;;4.53;;
73512;SDS011;61754;55.008;73.348;2022-07-10T01:13:50;7.20;;;4.15;;
73512;SDS011;61754;55.008;73.348;2022-07-10T01:16:16;3.78;;;3.35;;
73512;SDS011;61754;55.008;73.348;2022-07-10T01:18:44;5.90;;;4.45;;
73512;SDS011;61754;55.008;73.348;2022-07-10T01:21:28;5.70;;;4.07;;
73512;SDS011;61754;55.008;73.348;2022-07-10T01:24:06;9.98;;;4.38;;
73512;SDS011;61754;55.008;73.348;2022-07-10T01:26:32;7.53;;;3.80;;
73512;SDS011;61754;55.008;73.348;2022-07-10T01:28:58;4.88;;;4.40;;
73512;SDS011;61754;55.008;73.348;2022-07-10T01:31:27;5.00;;;4.03;;
73512;SDS011;61754;55.008;73.348;2022-07-10T01:33:53;7.07;;;4.30;;
73512;SDS011;61754;55.008;73.348;2022-07-10T01:36:20;4.88;;;4.25;;
73512;SDS011;61754;55.008;73.348;2022-07-10T01:38:46;6.93;;;4.50;;
73512;SDS011;61754;55.008;73.348;2022-07-10T01:41:13;8.35;;;4.32;;
73512;SDS011;61754;55.008;73.348;2022-07-10T01:43:39;4.28;;;3.97;;
73512;SDS011;61754;55.008;73.348;2022-07-10T01:46:10;6.70;;;4.10;;
73512;SDS011;61754;55.008;73.348;2022-07-10T01:48:37;6.15;;;4.43;;
73512;SDS011;61754;55.008;73.348;2022-07-10T01:51:09;6.82;;;4.13;;
73512;SDS011;61754;55.008;73.348;2022-07-10T01:53:35;4.68;;;4.38;;
73512;SDS011;61754;55.008;73.348;2022-07-10T01:56:03;10.55;;;4.63;;
73512;SDS011;61754;55.008;73.348;2022-07-10T01:58:29;7.65;;;4.07;;
73512;SDS011;61754;55.008;73.348;2022-07-10T02:00:55;7.38;;;4.03;;
73512;SDS011;61754;55.008;73.348;2022-07-10T02:03:21;6.63;;;4.07;;
73512;SDS011;61754;55.008;73.348;2022-07-10T02:06:06;6.93;;;4.35;;
73512;SDS011;61754;55.008;73.348;2022-07-10T02:08:34;7.00;;;4.20;;
73512;SDS011;61754;55.008;73.348;2022-07-10T02:11:00;10.40;;;4.40;;
73512;SDS011;61754;55.008;73.348;2022-07-10T02:13:26;5.55;;;4.25;;
73512;SDS011;61754;55.008;73.348;2022-07-10T02:15:56;5.32;;;3.95;;
73512;SDS011;61754;55.008;73.348;2022-07-10T02:18:22;9.07;;;4.50;;
73512;SDS011;61754;55.008;73.348;2022-07-10T02:20:48;4.40;;;4.03;;
73512;SDS011;61754;55.008;73.348;2022-07-10T02:23:17;19.45;;;4.70;;
73512;SDS011;61754;55.008;73.348;2022-07-10T02:25:43;5.55;;;3.70;;
73512;SDS011;61754;55.008;73.348;2022-07-10T02:28:09;6.85;;;4.35;;
73512;SDS011;61754;55.008;73.348;2022-07-10T02:30:37;6.45;;;4.15;;
73512;SDS011;61754;55.008;73.348;2022-07-10T02:33:03;6.90;;;4.35;;
73512;SDS011;61754;55.008;73.348;2022-07-10T02:35:34;6.60;;;4.00;;
73512;SDS011;61754;55.008;73.348;2022-07-10T02:38:00;6.95;;;3.92;;
73512;SDS011;61754;55.008;73.348;2022-07-10T02:40:26;7.25;;;3.72;;
73512;SDS011;61754;55.008;73.348;2022-07-10T02:42:52;7.85;;;4.88;;
73512;SDS011;61754;55.008;73.348;2022-07-10T02:45:18;11.40;;;4.20;;
73512;SDS011;61754;55.008;73.348;2022-07-10T02:47:54;4.75;;;3.42;;
73512;SDS011;61754;55.008;73.348;2022-07-10T02:50:20;5.00;;;3.97;;
73512;SDS011;61754;55.008;73.348;2022-07-10T02:52:55;8.90;;;3.72;;
73512;SDS011;61754;55.008;73.348;2022-07-10T02:55:24;8.55;;;4.43;;
73512;SDS011;61754;55.008;73.348;2022-07-10T02:57:52;4.60;;;4.20;;
73512;SDS011;61754;55.008;73.348;2022-07-10T03:00:18;4.70;;;4.20;;
73512;SDS011;61754;55.008;73.348;2022-07-10T03:02:46;8.85;;;3.90;;
73512;SDS011;61754;55.008;73.348;2022-07-10T03:05:15;5.10;;;4.03;;
73512;SDS011;61754;55.008;73.348;2022-07-10T03:07:41;4.40;;;4.05;;
73512;SDS011;61754;55.008;73.348;2022-07-10T03:10:07;6.60;;;3.47;;
73512;SDS011;61754;55.008;73.348;2022-07-10T03:12:44;8.50;;;4.05;;
73512;SDS011;61754;55.008;73.348;2022-07-10T03:15:17;7.25;;;3.65;;
73512;SDS011;61754;55.008;73.348;2022-07-10T03:17:43;4.80;;;4.40;;
73512;SDS011;61754;55.008;73.348;2022-07-10T03:20:09;5.13;;;4.07;;
73512;SDS011;61754;55.008;73.348;2022-07-10T03:22:36;6.00;;;4.18;;
73512;SDS011;61754;55.008;73.348;2022-07-10T03:25:02;5.07;;;3.60;;
73512;SDS011;61754;55.008;73.348;2022-07-10T03:27:39;5.68;;;4.07;;
73512;SDS011;61754;55.008;73.348;2022-07-10T03:30:05;10.98;;;3.92;;
73512;SDS011;61754;55.008;73.348;2022-07-10T03:32:31;7.43;;;3.85;;
73512;SDS011;61754;55.008;73.348;2022-07-10T03:35:00;6.38;;;3.70;;
73512;SDS011;61754;55.008;73.348;2022-07-10T03:37:28;11.02;;;4.28;;
73512;SDS011;61754;55.008;73.348;2022-07-10T03:39:59;7.25;;;3.95;;
73512;SDS011;61754;55.008;73.348;2022-07-10T03:42:25;7.97;;;4.03;;
73512;SDS011;61754;55.008;73.348;2022-07-10T03:44:51;10.15;;;4.35;;
73512;SDS011;61754;55.008;73.348;2022-07-10T03:47:17;5.07;;;3.33;;
73512;SDS011;61754;55.008;73.348;2022-07-10T03:49:43;7.30;;;4.32;;
73512;SDS011;61754;55.008;73.348;2022-07-10T03:52:10;10.30;;;3.90;;
73512;SDS011;61754;55.008;73.348;2022-07-10T03:54:38;7.00;;;3.78;;
73512;SDS011;61754;55.008;73.348;2022-07-10T03:57:14;5.40;;;3.60;;
73512;SDS011;61754;55.008;73.348;2022-07-10T03:59:59;11.90;;;3.60;;
73512;SDS011;61754;55.008;73.348;2022-07-10T04:02:25;4.78;;;3.45;;
73512;SDS011;61754;55.008;73.348;2022-07-10T04:04:51;3.47;;;3.17;;
73512;SDS011;61754;55.008;73.348;2022-07-10T04:07:27;7.53;;;4.30;;
73512;SDS011;61754;55.008;73.348;2022-07-10T04:09:53;14.02;;;3.63;;
73512;SDS011;61754;55.008;73.348;2022-07-10T04:12:19;11.65;;;3.30;;
73512;SDS011;61754;55.008;73.348;2022-07-10T04:14:45;8.02;;;3.45;;
73512;SDS011;61754;55.008;73.348;2022-07-10T04:17:13;5.72;;;3.45;;
73512;SDS011;61754;55.008;73.348;2022-07-10T04:19:39;4.70;;;3.03;;
73512;SDS011;61754;55.008;73.348;2022-07-10T04:22:04;3.50;;;3.03;;
73512;SDS011;61754;55.008;73.348;2022-07-10T04:24:30;3.15;;;2.92;;
73512;SDS011;61754;55.008;73.348;2022-07-10T04:26:56;5.85;;;3.53;;
73512;SDS011;61754;55.008;73.348;2022-07-10T04:29:32;9.93;;;4.18;;
73512;SDS011;61754;55.008;73.348;2022-07-10T04:31:58;7.50;;;3.38;;
73512;SDS011;61754;55.008;73.348;2022-07-10T04:34:24;4.18;;;3.72;;
73512;SDS011;61754;55.008;73.348;2022-07-10T04:36:50;4.50;;;3.22;;
73512;SDS011;61754;55.008;73.348;2022-07-10T04:39:16;3.72;;;2.90;;
73512;SDS011;61754;55.008;73.348;2022-07-10T04:41:42;3.70;;;3.08;;
73512;SDS011;61754;55.008;73.348;2022-07-10T04:44:08;5.47;;;3.10;;
73512;SDS011;61754;55.008;73.348;2022-07-10T04:46:44;8.07;;;3.35;;
73512;SDS011;61754;55.008;73.348;2022-07-10T04:49:10;3.97;;;3.53;;
73512;SDS011;61754;55.008;73.348;2022-07-10T04:51:46;5.50;;;3.47;;
73512;SDS011;61754;55.008;73.348;2022-07-10T04:54:12;5.95;;;3.03;;
73512;SDS011;61754;55.008;73.348;2022-07-10T04:56:38;3.75;;;3.00;;
73512;SDS011;61754;55.008;73.348;2022-07-10T04:59:08;3.97;;;3.13;;
73512;SDS011;61754;55.008;73.348;2022-07-10T05:01:35;3.55;;;3.10;;
73512;SDS011;61754;55.008;73.348;2022-07-10T05:04:11;6.07;;;3.38;;
73512;SDS011;61754;55.008;73.348;2022-07-10T05:06:47;3.17;;;2.63;;
73512;SDS011;61754;55.008;73.348;2022-07-10T05:09:18;3.60;;;3.30;;
73512;SDS011;61754;55.008;73.348;2022-07-10T05:11:47;7.70;;;3.30;;
73512;SDS011;61754;55.008;73.348;2022-07-10T05:14:13;3.92;;;3.63;;
73512;SDS011;61754;55.008;73.348;2022-07-10T05:16:39;6.78;;;3.10;;
73512;SDS011;61754;55.008;73.348;2022-07-10T05:19:05;2.95;;;2.75;;
73512;SDS011;61754;55.008;73.348;2022-07-10T05:21:31;3.30;;;3.10;;
73512;SDS011;61754;55.008;73.348;2022-07-10T05:23:57;4.05;;;2.95;;
73512;SDS011;61754;55.008;73.348;2022-07-10T05:26:23;4.53;;;3.22;;
73512;SDS011;61754;55.008;73.348;2022-07-10T05:28:49;3.67;;;2.80;;
73512;SDS011;61754;55.008;73.348;2022-07-10T05:31:20;5.13;;;3.45;;
73512;SDS011;61754;55.008;73.348;2022-07-10T05:33:46;5.55;;;3.25;;
73512;SDS011;61754;55.008;73.348;2022-07-10T05:36:14;6.80;;;3.40;;
73512;SDS011;61754;55.008;73.348;2022-07-10T05:38:41;3.92;;;3.63;;
73512;SDS011;61754;55.008;73.348;2022-07-10T05:41:16;4.03;;;3.28;;
73512;SDS011;61754;55.008;73.348;2022-07-10T05:43:42;5.80;;;3.00;;
73512;SDS011;61754;55.008;73.348;2022-07-10T05:46:09;6.97;;;3.50;;
73512;SDS011;61754;55.008;73.348;2022-07-10T05:48:35;3.70;;;3.50;;
73512;SDS011;61754;55.008;73.348;2022-07-10T05:51:01;4.28;;;3.50;;
73512;SDS011;61754;55.008;73.348;2022-07-10T05:53:28;3.95;;;3.50;;
73512;SDS011;61754;55.008;73.348;2022-07-10T05:55:54;3.17;;;2.97;;
73512;SDS011;61754;55.008;73.348;2022-07-10T05:58:29;5.90;;;3.40;;
73512;SDS011;61754;55.008;73.348;2022-07-10T06:00:55;6.25;;;3.70;;
73512;SDS011;61754;55.008;73.348;2022-07-10T06:03:22;3.97;;;3.00;;
73512;SDS011;61754;55.008;73.348;2022-07-10T06:05:48;4.00;;;3.75;;
73512;SDS011;61754;55.008;73.348;2022-07-10T06:08:14;4.05;;;3.67;;
73512;SDS011;61754;55.008;73.348;2022-07-10T06:10:40;6.43;;;3.90;;
73512;SDS011;61754;55.008;73.348;2022-07-10T06:13:06;3.40;;;3.03;;
73512;SDS011;61754;55.008;73.348;2022-07-10T06:15:32;7.18;;;3.30;;
73512;SDS011;61754;55.008;73.348;2022-07-10T06:17:59;4.30;;;3.40;;
73512;SDS011;61754;55.008;73.348;2022-07-10T06:20:35;3.30;;;3.10;;
73512;SDS011;61754;55.008;73.348;2022-07-10T06:23:01;3.60;;;3.35;;
73512;SDS011;61754;55.008;73.348;2022-07-10T06:25:32;5.05;;;3.28;;
73512;SDS011;61754;55.008;73.348;2022-07-10T06:27:58;4.15;;;3.28;;
73512;SDS011;61754;55.008;73.348;2022-07-10T06:30:26;5.63;;;2.95;;
73512;SDS011;61754;55.008;73.348;2022-07-10T06:32:53;4.03;;;3.33;;
73512;SDS011;61754;55.008;73.348;2022-07-10T06:35:19;3.67;;;3.47;;
73512;SDS011;61754;55.008;73.348;2022-07-10T06:37:45;4.90;;;3.78;;
73512;SDS011;61754;55.008;73.348;2022-07-10T06:40:12;6.35;;;3.30;;
73512;SDS011;61754;55.008;73.348;2022-07-10T06:42:44;6.03;;;3.40;;
73512;SDS011;61754;55.008;73.348;2022-07-10T06:45:20;3.50;;;3.20;;
73512;SDS011;61754;55.008;73.348;2022-07-10T06:47:47;7.07;;;3.30;;
73512;SDS011;61754;55.008;73.348;2022-07-10T06:50:33;5.65;;;3.55;;
73512;SDS011;61754;55.008;73.348;2022-07-10T06:53:01;4.03;;;2.97;;
73512;SDS011;61754;55.008;73.348;2022-07-10T06:55:28;7.40;;;4.03;;
73512;SDS011;61754;55.008;73.348;2022-07-10T06:57:54;7.35;;;3.67;;
73512;SDS011;61754;55.008;73.348;2022-07-10T07:00:25;3.85;;;3.55;;
73512;SDS011;61754;55.008;73.348;2022-07-10T07:02:51;3.88;;;3.58;;
73512;SDS011;61754;55.008;73.348;2022-07-10T07:05:17;5.80;;;4.90;;
73512;SDS011;61754;55.008;73.348;2022-07-10T07:07:47;10.40;;;3.92;;
73512;SDS011;61754;55.008;73.348;2022-07-10T07:10:13;6.60;;;3.63;;
73512;SDS011;61754;55.008;73.348;2022-07-10T07:12:43;3.83;;;3.38;;
73512;SDS011;61754;55.008;73.348;2022-07-10T07:15:09;3.50;;;3.30;;
73512;SDS011;61754;55.008;73.348;2022-07-10T07:17:44;6.30;;;3.05;;
73512;SDS011;61754;55.008;73.348;2022-07-10T07:20:34;5.15;;;3.15;;
73512;SDS011;61754;55.008;73.348;2022-07-10T07:23:19;3.78;;;3.38;;
73512;SDS011;61754;55.008;73.348;2022-07-10T07:25:45;3.20;;;3.00;;
73512;SDS011;61754;55.008;73.348;2022-07-10T07:28:17;4.35;;;3.15;;
73512;SDS011;61754;55.008;73.348;2022-07-10T07:30:48;3.88;;;3.60;;
73512;SDS011;61754;55.008;73.348;2022-07-10T07:33:21;3.63;;;3.35;;
73512;SDS011;61754;55.008;73.348;2022-07-10T07:35:47;3.45;;;3.15;;
73512;SDS011;61754;55.008;73.348;2022-07-10T07:38:13;11.02;;;3.65;;
73512;SDS011;61754;55.008;73.348;2022-07-10T07:40:43;4.30;;;3.45;;
73512;SDS011;61754;55.008;73.348;2022-07-10T07:43:10;3.92;;;3.58;;
73512;SDS011;61754;55.008;73.348;2022-07-10T07:45:40;3.85;;;3.58;;
73512;SDS011;61754;55.008;73.348;2022-07-10T07:48:06;7.05;;;3.75;;
73512;SDS011;61754;55.008;73.348;2022-07-10T07:50:34;3.75;;;3.45;;
73512;SDS011;61754;55.008;73.348;2022-07-10T07:53:00;5.85;;;3.33;;
73512;SDS011;61754;55.008;73.348;2022-07-10T07:55:32;4.05;;;3.70;;
73512;SDS011;61754;55.008;73.348;2022-07-10T07:57:58;4.50;;;3.53;;
73512;SDS011;61754;55.008;73.348;2022-07-10T08:00:25;5.28;;;4.25;;
73512;SDS011;61754;55.008;73.348;2022-07-10T08:02:52;6.00;;;3.88;;
73512;SDS011;61754;55.008;73.348;2022-07-10T08:05:19;4.68;;;3.72;;
73512;SDS011;61754;55.008;73.348;2022-07-10T08:07:51;5.05;;;3.38;;
73512;SDS011;61754;55.008;73.348;2022-07-10T08:10:18;8.73;;;3.58;;
73512;SDS011;61754;55.008;73.348;2022-07-10T08:12:45;5.18;;;3.85;;
73512;SDS011;61754;55.008;73.348;2022-07-10T08:15:17;3.83;;;3.42;;
73512;SDS011;61754;55.008;73.348;2022-07-10T08:17:46;4.28;;;3.88;;
73512;SDS011;61754;55.008;73.348;2022-07-10T08:20:17;7.20;;;3.67;;
73512;SDS011;61754;55.008;73.348;2022-07-10T08:22:43;6.20;;;3.45;;
73512;SDS011;61754;55.008;73.348;2022-07-10T08:25:19;3.80;;;3.50;;
73512;SDS011;61754;55.008;73.348;2022-07-10T08:27:45;4.60;;;4.20;;
73512;SDS011;61754;55.008;73.348;2022-07-10T08:30:26;4.35;;;4.00;;
73512;SDS011;61754;55.008;73.348;2022-07-10T08:32:53;4.05;;;3.75;;
73512;SDS011;61754;55.008;73.348;2022-07-10T08:35:19;8.05;;;4.35;;
73512;SDS011;61754;55.008;73.348;2022-07-10T08:37:45;5.22;;;3.72;;
73512;SDS011;61754;55.008;73.348;2022-07-10T08:40:16;3.95;;;3.65;;
73512;SDS011;61754;55.008;73.348;2022-07-10T08:42:42;4.03;;;3.72;;
73512;SDS011;61754;55.008;73.348;2022-07-10T08:45:10;6.43;;;3.75;;
73512;SDS011;61754;55.008;73.348;2022-07-10T08:47:42;5.05;;;3.58;;
73512;SDS011;61754;55.008;73.348;2022-07-10T08:50:17;4.30;;;3.90;;
73512;SDS011;61754;55.008;73.348;2022-07-10T08:52:44;3.80;;;3.60;;
73512;SDS011;61754;55.008;73.348;2022-07-10T08:55:16;4.20;;;3.28;;
73512;SDS011;61754;55.008;73.348;2022-07-10T08:57:43;11.43;;;3.88;;
73512;SDS011;61754;55.008;73.348;2022-07-10T09:00:19;5.65;;;3.80;;
73512;SDS011;61754;55.008;73.348;2022-07-10T09:02:53;6.85;;;3.80;;
73512;SDS011;61754;55.008;73.348;2022-07-10T09:05:20;5.10;;;3.90;;
73512;SDS011;61754;55.008;73.348;2022-07-10T09:07:55;3.88;;;3.50;;
73512;SDS011;61754;55.008;73.348;2022-07-10T09:10:24;3.35;;;3.10;;
73512;SDS011;61754;55.008;73.348;2022-07-10T09:12:56;5.63;;;4.00;;
73512;SDS011;61754;55.008;73.348;2022-07-10T09:15:27;6.93;;;3.72;;
73512;SDS011;61754;55.008;73.348;2022-07-10T09:17:56;4.45;;;3.63;;
73512;SDS011;61754;55.008;73.348;2022-07-10T09:23:15;11.32;;;3.97;;
73512;SDS011;61754;55.008;73.348;2022-07-10T09:25:54;5.97;;;3.97;;
73512;SDS011;61754;55.008;73.348;2022-07-10T09:28:21;4.43;;;4.03;;
73512;SDS011;61754;55.008;73.348;2022-07-10T09:30:47;4.35;;;3.95;;
73512;SDS011;61754;55.008;73.348;2022-07-10T09:33:20;7.05;;;3.83;;
73512;SDS011;61754;55.008;73.348;2022-07-10T09:41:12;7.10;;;3.83;;
73512;SDS011;61754;55.008;73.348;2022-07-10T09:43:44;6.15;;;3.78;;
73512;SDS011;61754;55.008;73.348;2022-07-10T09:46:25;5.45;;;3.75;;
73512;SDS011;61754;55.008;73.348;2022-07-10T09:49:03;4.00;;;3.78;;
73512;SDS011;61754;55.008;73.348;2022-07-10T09:51:30;5.90;;;3.80;;
73512;SDS011;61754;55.008;73.348;2022-07-10T09:54:02;4.60;;;3.53;;
73512;SDS011;61754;55.008;73.348;2022-07-10T09:56:50;4.00;;;3.70;;
73512;SDS011;61754;55.008;73.348;2022-07-10T09:59:18;10.02;;;4.05;;
73512;SDS011;61754;55.008;73.348;2022-07-10T10:01:48;10.32;;;3.58;;
73512;SDS011;61754;55.008;73.348;2022-07-10T10:04:16;7.90;;;3.72;;
73512;SDS011;61754;55.008;73.348;2022-07-10T10:06:53;7.43;;;3.67;;
73512;SDS011;61754;55.008;73.348;2022-07-10T10:10:19;4.03;;;3.60;;
73512;SDS011;61754;55.008;73.348;2022-07-10T10:12:19;3.92;;;3.55;;
73512;SDS011;61754;55.008;73.348;2022-07-10T10:14:47;4.00;;;3.70;;
73512;SDS011;61754;55.008;73.348;2022-07-10T10:17:13;9.52;;;4.32;;
73512;SDS011;61754;55.008;73.348;2022-07-10T10:19:41;8.27;;;4.30;;
73512;SDS011;61754;55.008;73.348;2022-07-10T10:22:27;15.80;;;6.00;;
73512;SDS011;61754;55.008;73.348;2022-07-10T10:24:54;12.60;;;4.47;;
73512;SDS011;61754;55.008;73.348;2022-07-10T10:27:21;7.93;;;4.22;;
73512;SDS011;61754;55.008;73.348;2022-07-10T10:29:47;5.88;;;3.67;;
73512;SDS011;61754;55.008;73.348;2022-07-10T10:32:15;5.90;;;4.47;;
73512;SDS011;61754;55.008;73.348;2022-07-10T10:34:43;7.32;;;4.78;;
73512;SDS011;61754;55.008;73.348;2022-07-10T10:39:56;6.45;;;4.00;;
73512;SDS011;61754;55.008;73.348;2022-07-10T10:42:34;4.90;;;3.60;;
73512;SDS011;61754;55.008;73.348;2022-07-10T10:48:23;4.80;;;4.40;;
73512;SDS011;61754;55.008;73.348;2022-07-10T10:53:21;5.40;;;3.53;;
73512;SDS011;61754;55.008;73.348;2022-07-10T10:58:36;10.95;;;3.35;;
73512;SDS011;61754;55.008;73.348;2022-07-10T11:01:03;9.85;;;4.15;;
73512;SDS011;61754;55.008;73.348;2022-07-10T11:06:01;6.25;;;3.85;;
73512;SDS011;61754;55.008;73.348;2022-07-10T11:08:36;5.60;;;3.67;;
73512;SDS011;61754;55.008;73.348;2022-07-10T11:13:54;4.53;;;4.22;;
73512;SDS011;61754;55.008;73.348;2022-07-10T11:16:22;4.82;;;3.50;;
73512;SDS011;61754;55.008;73.348;2022-07-10T11:18:54;5.93;;;4.32;;
73512;SDS011;61754;55.008;73.348;2022-07-10T11:21:24;11.18;;;4.72;;
73512;SDS011;61754;55.008;73.348;2022-07-10T11:23:56;8.40;;;4.00;;
73512;SDS011;61754;55.008;73.348;2022-07-10T11:26:35;3.95;;;3.47;;
73512;SDS011;61754;55.008;73.348;2022-07-10T11:29:05;6.82;;;4.07;;
73512;SDS011;61754;55.008;73.348;2022-07-10T11:31:32;7.43;;;4.35;;
73512;SDS011;61754;55.008;73.348;2022-07-10T11:34:03;11.85;;;4.25;;
73512;SDS011;61754;55.008;73.348;2022-07-10T11:36:29;7.55;;;4.07;;
73512;SDS011;61754;55.008;73.348;2022-07-10T11:39:07;7.13;;;4.03;;
73512;SDS011;61754;55.008;73.348;2022-07-10T11:41:34;4.22;;;3.78;;
73512;SDS011;61754;55.008;73.348;2022-07-10T11:44:12;4.68;;;3.88;;
73512;SDS011;61754;55.008;73.348;2022-07-10T11:46:38;8.75;;;4.75;;
73512;SDS011;61754;55.008;73.348;2022-07-10T11:49:05;14.90;;;5.43;;
73512;SDS011;61754;55.008;73.348;2022-07-10T11:51:32;4.22;;;3.83;;
73512;SDS011;61754;55.008;73.348;2022-07-10T11:53:59;11.55;;;4.05;;
73512;SDS011;61754;55.008;73.348;2022-07-10T11:56:27;8.07;;;3.63;;
73512;SDS011;61754;55.008;73.348;2022-07-10T12:01:24;5.82;;;3.92;;
73512;SDS011;61754;55.008;73.348;2022-07-10T12:04:24;6.80;;;4.10;;
73512;SDS011;61754;55.008;73.348;2022-07-10T12:06:46;4.95;;;4.32;;
73512;SDS011;61754;55.008;73.348;2022-07-10T12:09:16;5.35;;;4.63;;
73512;SDS011;61754;55.008;73.348;2022-07-10T12:11:44;4.13;;;3.80;;
73512;SDS011;61754;55.008;73.348;2022-07-10T12:16:55;12.23;;;5.18;;
73512;SDS011;61754;55.008;73.348;2022-07-10T12:19:25;8.45;;;4.45;;
73512;SDS011;61754;55.008;73.348;2022-07-10T12:21:53;8.18;;;5.00;;
73512;SDS011;61754;55.008;73.348;2022-07-10T12:24:19;18.48;;;4.95;;
73512;SDS011;61754;55.008;73.348;2022-07-10T12:26:55;7.68;;;4.40;;
73512;SDS011;61754;55.008;73.348;2022-07-10T12:31:48;7.80;;;4.60;;
73512;SDS011;61754;55.008;73.348;2022-07-10T12:34:16;6.50;;;4.25;;
73512;SDS011;61754;55.008;73.348;2022-07-10T12:36:48;6.53;;;4.47;;
73512;SDS011;61754;55.008;73.348;2022-07-10T12:39:20;9.13;;;6.55;;
73512;SDS011;61754;55.008;73.348;2022-07-10T12:44:36;7.60;;;4.40;;
73512;SDS011;61754;55.008;73.348;2022-07-10T12:47:08;6.25;;;3.90;;
73512;SDS011;61754;55.008;73.348;2022-07-10T12:49:55;7.63;;;4.07;;
73512;SDS011;61754;55.008;73.348;2022-07-10T12:55:17;12.63;;;4.40;;
73512;SDS011;61754;55.008;73.348;2022-07-10T12:57:57;8.93;;;4.55;;
73512;SDS011;61754;55.008;73.348;2022-07-10T13:00:27;8.65;;;4.68;;
73512;SDS011;61754;55.008;73.348;2022-07-10T13:03:05;9.27;;;4.38;;
73512;SDS011;61754;55.008;73.348;2022-07-10T13:05:32;8.60;;;4.82;;
73512;SDS011;61754;55.008;73.348;2022-07-10T13:08:12;10.73;;;4.60;;
73512;SDS011;61754;55.008;73.348;2022-07-10T13:10:41;4.88;;;4.05;;
73512;SDS011;61754;55.008;73.348;2022-07-10T13:13:17;15.95;;;6.72;;
73512;SDS011;61754;55.008;73.348;2022-07-10T13:15:48;16.13;;;5.75;;
73512;SDS011;61754;55.008;73.348;2022-07-10T13:18:33;7.18;;;4.57;;
73512;SDS011;61754;55.008;73.348;2022-07-10T13:21:02;12.70;;;4.68;;
73512;SDS011;61754;55.008;73.348;2022-07-10T13:23:29;9.85;;;4.85;;
73512;SDS011;61754;55.008;73.348;2022-07-10T13:26:05;6.10;;;4.43;;
73512;SDS011;61754;55.008;73.348;2022-07-10T13:28:33;11.70;;;5.45;;
73512;SDS011;61754;55.008;73.348;2022-07-10T13:31:03;20.73;;;5.20;;
73512;SDS011;61754;55.008;73.348;2022-07-10T13:33:29;6.63;;;5.53;;
73512;SDS011;61754;55.008;73.348;2022-07-10T13:36:00;5.73;;;4.70;;
73512;SDS011;61754;55.008;73.348;2022-07-10T13:38:27;6.53;;;5.93;;
73512;SDS011;61754;55.008;73.348;2022-07-10T13:40:53;5.30;;;4.80;;
73512;SDS011;61754;55.008;73.348;2022-07-10T13:43:19;11.68;;;6.85;;
73512;SDS011;61754;55.008;73.348;2022-07-10T13:45:51;6.50;;;5.75;;
73512;SDS011;61754;55.008;73.348;2022-07-10T13:48:28;7.22;;;4.60;;
73512;SDS011;61754;55.008;73.348;2022-07-10T13:50:54;13.80;;;6.60;;
73512;SDS011;61754;55.008;73.348;2022-07-10T13:53:20;12.65;;;6.60;;
73512;SDS011;61754;55.008;73.348;2022-07-10T13:55:47;6.05;;;5.50;;
73512;SDS011;61754;55.008;73.348;2022-07-10T13:58:18;11.52;;;6.47;;
73512;SDS011;61754;55.008;73.348;2022-07-10T14:00:51;11.35;;;7.28;;
73512;SDS011;61754;55.008;73.348;2022-07-10T14:03:22;8.48;;;5.65;;
73512;SDS011;61754;55.008;73.348;2022-07-10T14:05:53;8.50;;;6.00;;
73512;SDS011;61754;55.008;73.348;2022-07-10T14:08:19;10.85;;;7.47;;
73512;SDS011;61754;55.008;73.348;2022-07-10T14:10:45;8.93;;;7.65;;
73512;SDS011;61754;55.008;73.348;2022-07-10T14:13:13;6.55;;;5.90;;
73512;SDS011;61754;55.008;73.348;2022-07-10T14:15:39;6.80;;;4.93;;
73512;SDS011;61754;55.008;73.348;2022-07-10T14:20:37;8.40;;;5.22;;
73512;SDS011;61754;55.008;73.348;2022-07-10T14:23:31;13.25;;;5.00;;
73512;SDS011;61754;55.008;73.348;2022-07-10T14:26:00;9.52;;;4.85;;
73512;SDS011;61754;55.008;73.348;2022-07-10T14:28:26;5.55;;;5.03;;
73512;SDS011;61754;55.008;73.348;2022-07-10T14:30:52;8.80;;;5.47;;
73512;SDS011;61754;55.008;73.348;2022-07-10T14:33:18;10.43;;;5.35;;
73512;SDS011;61754;55.008;73.348;2022-07-10T14:35:44;10.15;;;5.15;;
73512;SDS011;61754;55.008;73.348;2022-07-10T14:38:15;9.73;;;5.47;;
73512;SDS011;61754;55.008;73.348;2022-07-10T14:40:41;7.63;;;4.63;;
73512;SDS011;61754;55.008;73.348;2022-07-10T14:43:17;12.02;;;5.57;;
73512;SDS011;61754;55.008;73.348;2022-07-10T14:45:47;5.20;;;4.65;;
73512;SDS011;61754;55.008;73.348;2022-07-10T14:48:13;10.02;;;5.30;;
73512;SDS011;61754;55.008;73.348;2022-07-10T14:50:39;10.95;;;7.25;;
73512;SDS011;61754;55.008;73.348;2022-07-10T14:53:06;13.25;;;6.25;;
73512;SDS011;61754;55.008;73.348;2022-07-10T14:55:36;5.78;;;5.28;;
73512;SDS011;61754;55.008;73.348;2022-07-10T14:58:02;8.90;;;6.65;;
73512;SDS011;61754;55.008;73.348;2022-07-10T15:00:28;10.05;;;6.22;;
73512;SDS011;61754;55.008;73.348;2022-07-10T15:03:03;9.55;;;5.80;;
73512;SDS011;61754;55.008;73.348;2022-07-10T15:05:29;8.98;;;6.13;;
73512;SDS011;61754;55.008;73.348;2022-07-10T15:08:00;12.40;;;6.05;;
73512;SDS011;61754;55.008;73.348;2022-07-10T15:10:28;6.82;;;6.13;;
73512;SDS011;61754;55.008;73.348;2022-07-10T15:12:54;8.18;;;6.40;;
73512;SDS011;61754;55.008;73.348;2022-07-10T15:15:23;6.65;;;6.00;;
73512;SDS011;61754;55.008;73.348;2022-07-10T15:17:49;10.20;;;6.45;;
73512;SDS011;61754;55.008;73.348;2022-07-10T15:20:15;6.80;;;6.07;;
73512;SDS011;61754;55.008;73.348;2022-07-10T15:22:44;9.77;;;6.30;;
73512;SDS011;61754;55.008;73.348;2022-07-10T15:25:10;9.15;;;6.38;;
73512;SDS011;61754;55.008;73.348;2022-07-10T15:27:42;13.88;;;6.18;;